Time;durP1;ratioP1;P1;durP2;ratioP2;P2;SDS_P1;SDS_P2;PMS_P1;PMS_P2;Temp;Humidity;BMP_temperature;BMP_pressure;BME280_temperature;BME280_humidity;BME280_pressure;Samples;Min_cycle;Max_cycle;Signal;HPM_P1;HPM_P2
2022/03/11 00:00:51;;;;;;;14.20;8.95;;;-0.30;78.70;;;;;;5072188;28;20614;-68
2022/03/11 00:03:25;;;;;;;16.75;9.63;;;-0.30;78.70;;;;;;5071773;28;20610;-69
2022/03/11 00:05:53;;;;;;;12.68;7.75;;;-0.30;78.80;;;;;;5072091;28;20221;-66
2022/03/11 00:08:24;;;;;;;13.32;8.77;;;-0.30;78.70;;;;;;5071943;28;20201;-68
2022/03/11 00:10:52;;;;;;;15.50;9.50;;;-0.40;78.80;;;;;;5071579;28;20209;-66
2022/03/11 00:13:18;;;;;;;16.02;9.85;;;-0.40;79.00;;;;;;5071901;28;20222;-66
2022/03/11 00:15:45;;;;;;;14.32;9.52;;;-0.40;78.90;;;;;;5071980;28;20181;-66
2022/03/11 00:18:13;;;;;;;12.85;8.82;;;-0.40;79.10;;;;;;5074006;28;20670;-66
2022/03/11 00:20:40;;;;;;;12.00;8.60;;;-0.50;79.10;;;;;;5075666;28;20185;-68
2022/03/11 00:23:21;;;;;;;10.25;8.20;;;-0.50;79.10;;;;;;5075760;28;20253;-66
2022/03/11 00:25:49;;;;;;;10.25;8.15;;;-0.50;79.30;;;;;;5076765;28;20177;-66
2022/03/11 00:28:24;;;;;;;14.68;9.05;;;-0.50;79.30;;;;;;5075465;28;20193;-69
2022/03/11 00:30:55;;;;;;;14.80;8.85;;;-0.50;79.30;;;;;;5076179;28;20653;-68
2022/03/11 00:33:25;;;;;;;11.98;7.57;;;-0.50;79.50;;;;;;5075293;28;20193;-68
2022/03/11 00:35:56;;;;;;;15.07;8.45;;;-0.60;79.40;;;;;;5075437;28;20188;-66
2022/03/11 00:38:25;;;;;;;9.70;6.90;;;-0.60;79.40;;;;;;5075186;28;20193;-68
2022/03/11 00:40:56;;;;;;;12.63;8.32;;;-0.60;79.40;;;;;;5075414;28;20177;-66
2022/03/11 00:43:28;;;;;;;10.32;7.93;;;-0.60;79.30;;;;;;5075029;28;20193;-68
2022/03/11 00:45:55;;;;;;;8.30;6.38;;;-0.60;79.40;;;;;;5075141;28;20185;-66
2022/03/11 00:48:49;;;;;;;11.80;7.85;;;-0.60;79.40;;;;;;5074892;28;20268;-66
2022/03/11 00:51:42;;;;;;;11.98;7.57;;;-0.70;79.50;;;;;;5074762;28;20216;-66
2022/03/11 00:54:10;;;;;;;10.93;8.55;;;-0.70;79.80;;;;;;5074926;28;20177;-66
2022/03/11 00:56:38;;;;;;;10.70;8.05;;;-0.70;79.60;;;;;;5074783;28;20182;-66
2022/03/11 00:59:06;;;;;;;8.98;7.00;;;-0.80;79.70;;;;;;5074894;28;20173;-66
2022/03/11 01:01:33;;;;;;;9.00;6.75;;;-0.80;79.70;;;;;;5074918;28;20192;-66
2022/03/11 01:03:59;;;;;;;12.15;8.20;;;-0.80;79.80;;;;;;5074814;28;20169;-66
2022/03/11 01:06:28;;;;;;;9.85;6.75;;;-0.80;79.80;;;;;;5074763;28;20189;-66
2022/03/11 01:08:55;;;;;;;10.05;7.63;;;-0.90;79.90;;;;;;5074548;28;20239;-66
2022/03/11 01:11:21;;;;;;;8.88;7.40;;;-0.90;79.90;;;;;;5074514;28;20231;-66
2022/03/11 01:13:48;;;;;;;9.52;6.97;;;-0.90;79.90;;;;;;5074470;28;20198;-66
2022/03/11 01:16:15;;;;;;;10.27;7.55;;;-0.90;79.90;;;;;;5074699;28;20264;-68
2022/03/11 01:18:47;;;;;;;12.10;7.90;;;-1.00;79.90;;;;;;5074482;28;20231;-69
2022/03/11 01:21:13;;;;;;;9.75;7.20;;;-1.00;79.90;;;;;;5074510;28;20193;-68
2022/03/11 01:23:43;;;;;;;10.27;7.57;;;-1.00;79.90;;;;;;5075730;28;20555;-68
2022/03/11 01:26:11;;;;;;;12.30;7.10;;;-1.00;79.90;;;;;;5076170;28;20594;-68
2022/03/11 01:28:42;;;;;;;11.93;8.10;;;-1.00;79.90;;;;;;5074382;28;20201;-68
2022/03/11 01:31:13;;;;;;;10.50;7.45;;;-1.00;80.00;;;;;;5073788;28;20335;-68
2022/03/11 01:33:40;;;;;;;9.52;6.70;;;-1.10;80.00;;;;;;5074255;28;20238;-66
2022/03/11 01:36:07;;;;;;;10.07;6.38;;;-1.10;80.10;;;;;;5075913;28;20230;-66
2022/03/11 01:38:46;;;;;;;13.07;8.13;;;-1.10;80.10;;;;;;5075356;28;20193;-68
2022/03/11 01:41:20;;;;;;;10.20;7.15;;;-1.20;80.10;;;;;;5074086;28;20284;-66
2022/03/11 01:44:02;;;;;;;10.35;7.03;;;-1.20;80.30;;;;;;5073977;28;20221;-66
2022/03/11 01:46:29;;;;;;;10.52;7.85;;;-1.20;80.40;;;;;;5074201;28;20181;-66
2022/03/11 01:49:01;;;;;;;8.63;6.57;;;-1.20;80.40;;;;;;5073685;28;20289;-68
2022/03/11 01:51:29;;;;;;;10.85;7.22;;;-1.20;80.30;;;;;;5074119;28;20231;-66
2022/03/11 01:53:56;;;;;;;12.43;8.13;;;-1.20;80.40;;;;;;5073982;28;20200;-66
2022/03/11 01:56:23;;;;;;;11.40;7.63;;;-1.20;80.30;;;;;;5073885;28;20185;-66
2022/03/11 01:58:54;;;;;;;10.63;7.60;;;-1.30;80.30;;;;;;5073672;28;20197;-66
2022/03/11 02:01:28;;;;;;;10.00;7.28;;;-1.30;80.60;;;;;;5073794;28;20223;-68
2022/03/11 02:04:00;;;;;;;13.95;7.53;;;-1.40;80.50;;;;;;5073850;28;20225;-68
2022/03/11 02:06:31;;;;;;;12.57;8.18;;;-1.40;81.30;;;;;;5073460;28;20188;-68
2022/03/11 02:09:04;;;;;;;10.50;7.50;;;-1.40;80.70;;;;;;5073677;28;20184;-66
2022/03/11 02:11:47;;;;;;;12.05;7.65;;;-1.40;80.80;;;;;;5073573;28;20217;-66
2022/03/11 02:14:16;;;;;;;10.55;8.15;;;-1.50;80.80;;;;;;5073578;28;20169;-66
2022/03/11 02:16:42;;;;;;;11.63;7.70;;;-1.50;81.00;;;;;;5073185;28;20185;-66
2022/03/11 02:19:09;;;;;;;11.10;7.72;;;-1.50;81.00;;;;;;5073409;28;20173;-68
2022/03/11 02:21:47;;;;;;;10.75;7.13;;;-1.50;80.90;;;;;;5073407;28;20211;-68
2022/03/11 02:24:16;;;;;;;10.60;8.38;;;-1.50;81.00;;;;;;5073374;28;20177;-66
2022/03/11 02:26:42;;;;;;;10.57;6.95;;;-1.50;81.00;;;;;;5073124;28;20220;-66
2022/03/11 02:29:09;;;;;;;10.55;7.05;;;-1.50;81.00;;;;;;5073172;28;20174;-66
2022/03/11 02:31:40;;;;;;;13.57;7.65;;;-1.50;81.00;;;;;;5072613;28;20274;-66
2022/03/11 02:34:17;;;;;;;10.25;7.47;;;-1.50;80.90;;;;;;5073172;28;20585;-68
2022/03/11 02:36:44;;;;;;;12.05;8.23;;;-1.60;81.30;;;;;;5072986;28;20185;-66
2022/03/11 02:39:13;;;;;;;11.60;8.38;;;-1.60;81.30;;;;;;5072852;28;20173;-68
2022/03/11 02:41:42;;;;;;;13.35;7.85;;;-1.60;81.40;;;;;;5072537;28;20201;-66
2022/03/11 02:44:11;;;;;;;12.48;8.05;;;-1.60;81.60;;;;;;5073370;28;20268;-68
2022/03/11 02:46:37;;;;;;;10.57;7.90;;;-1.70;81.30;;;;;;5072780;28;20650;-68
2022/03/11 02:49:04;;;;;;;11.65;7.10;;;-1.70;81.40;;;;;;5074099;28;20173;-66
2022/03/11 02:51:31;;;;;;;14.80;7.25;;;-1.80;81.50;;;;;;5072913;28;20224;-68
2022/03/11 02:53:57;;;;;;;13.43;8.00;;;-1.80;81.40;;;;;;5072643;28;20172;-66
2022/03/11 02:56:25;;;;;;;12.82;8.13;;;-1.80;81.50;;;;;;5072801;28;20177;-67
2022/03/11 02:58:51;;;;;;;12.45;8.35;;;-1.90;81.60;;;;;;5072476;28;20694;-69
2022/03/11 03:01:18;;;;;;;13.32;6.90;;;-1.90;81.60;;;;;;5072775;28;20212;-66
2022/03/11 03:03:46;;;;;;;11.18;7.15;;;-1.90;81.60;;;;;;5072525;28;20562;-68
2022/03/11 03:06:13;;;;;;;13.35;6.70;;;-2.00;81.60;;;;;;5072643;28;20654;-68
2022/03/11 03:08:39;;;;;;;11.88;7.93;;;-1.90;81.70;;;;;;5072518;28;20197;-66
2022/03/11 03:11:05;;;;;;;10.18;7.20;;;-2.00;81.60;;;;;;5072716;28;20347;-67
2022/03/11 03:13:35;;;;;;;9.77;7.43;;;-2.00;81.60;;;;;;5072794;28;20193;-66
2022/03/11 03:16:02;;;;;;;11.00;6.38;;;-2.00;81.70;;;;;;5072420;28;20230;-68
2022/03/11 03:18:30;;;;;;;9.15;6.22;;;-2.00;81.60;;;;;;5072584;28;20728;-68
2022/03/11 03:21:04;;;;;;;12.40;7.75;;;-2.00;81.80;;;;;;5072483;28;20272;-68
2022/03/11 03:23:34;;;;;;;11.75;7.25;;;-2.00;81.60;;;;;;5072545;28;20208;-68
2022/03/11 03:26:10;;;;;;;12.07;8.30;;;-2.00;81.80;;;;;;5072370;28;20217;-67
2022/03/11 03:28:43;;;;;;;9.07;6.57;;;-2.00;81.90;;;;;;5072503;28;20197;-66
2022/03/11 03:31:12;;;;;;;11.00;6.30;;;-2.00;81.80;;;;;;5072189;28;20366;-68
2022/03/11 03:33:42;;;;;;;9.23;7.05;;;-2.10;81.60;;;;;;5072354;28;20573;-66
2022/03/11 03:36:12;;;;;;;10.63;7.27;;;-2.10;81.60;;;;;;5072403;28;20188;-66
2022/03/11 03:38:39;;;;;;;10.18;7.43;;;-2.10;81.60;;;;;;5072247;28;20529;-66
2022/03/11 03:41:06;;;;;;;11.88;7.05;;;-2.10;82.20;;;;;;5072089;28;20584;-66
2022/03/11 03:43:33;;;;;;;12.73;6.53;;;-2.20;81.70;;;;;;5072202;28;20197;-67
2022/03/11 03:46:00;;;;;;;12.55;7.63;;;-2.20;81.90;;;;;;5072454;28;20188;-68
2022/03/11 03:48:26;;;;;;;13.18;7.63;;;-2.20;82.00;;;;;;5072219;28;20296;-65
2022/03/11 03:50:55;;;;;;;11.23;7.20;;;-2.20;81.90;;;;;;5073467;28;20208;-66
2022/03/11 03:53:21;;;;;;;11.13;7.57;;;-2.30;82.00;;;;;;5074592;28;20217;-66
2022/03/11 03:56:08;;;;;;;10.57;7.53;;;-2.30;82.10;;;;;;5076430;28;20192;-66
2022/03/11 03:58:38;;;;;;;14.93;7.70;;;-2.30;82.30;;;;;;5076325;28;20833;-66
2022/03/11 04:01:43;;;;;;;10.73;7.40;;;-2.30;82.10;;;;;;5077620;28;20209;-66
2022/03/11 04:04:13;;;;;;;10.88;7.88;;;-2.30;82.30;;;;;;5076041;28;20187;-66
2022/03/11 04:06:48;;;;;;;12.48;8.25;;;-2.30;82.40;;;;;;5077107;28;20192;-66
2022/03/11 04:09:52;;;;;;;10.82;7.35;;;-2.30;82.40;;;;;;5075791;28;20222;-66
2022/03/11 04:12:23;;;;;;;9.18;7.20;;;-2.30;82.60;;;;;;5075859;28;20221;-68
2022/03/11 04:15:06;;;;;;;11.57;7.45;;;-2.40;83.10;;;;;;5075329;28;20177;-68
2022/03/11 04:17:33;;;;;;;9.98;6.82;;;-2.40;82.60;;;;;;5075640;28;20228;-67
2022/03/11 04:20:44;;;;;;;11.88;7.07;;;-2.40;82.80;;;;;;5075470;28;20181;-68
2022/03/11 04:23:16;;;;;;;9.05;6.90;;;-2.40;82.70;;;;;;5076622;28;20197;-68
2022/03/11 04:25:42;;;;;;;10.00;6.65;;;-2.40;82.60;;;;;;5075665;28;20276;-68
2022/03/11 04:28:08;;;;;;;8.77;7.68;;;-2.40;82.40;;;;;;5075538;28;20720;-66
2022/03/11 04:30:34;;;;;;;9.27;6.72;;;-2.30;82.40;;;;;;5074526;28;20233;-66
2022/03/11 04:33:01;;;;;;;10.77;7.78;;;-2.30;82.40;;;;;;5075225;28;20619;-66
2022/03/11 04:35:30;;;;;;;11.80;6.80;;;-2.20;82.40;;;;;;5075214;28;20280;-68
2022/03/11 04:38:36;;;;;;;9.43;6.70;;;-2.20;82.40;;;;;;5074559;28;20243;-68
2022/03/11 04:41:04;;;;;;;9.75;6.63;;;-2.10;82.40;;;;;;5062584;28;20203;-68
2022/03/11 04:43:30;;;;;;;12.13;8.25;;;-2.10;82.30;;;;;;5075122;28;20205;-66
2022/03/11 04:45:56;;;;;;;8.50;6.30;;;-2.00;82.10;;;;;;5075295;28;20207;-66
2022/03/11 04:48:24;;;;;;;10.40;7.30;;;-2.00;82.30;;;;;;5075141;28;20197;-70
2022/03/11 04:50:56;;;;;;;11.23;7.20;;;-2.00;82.30;;;;;;5075056;28;20492;-68
2022/03/11 04:53:24;;;;;;;11.35;8.27;;;-2.00;82.10;;;;;;5075160;28;20276;-66
2022/03/11 04:55:52;;;;;;;13.18;8.10;;;-2.00;82.10;;;;;;5075093;28;20272;-66
2022/03/11 04:58:19;;;;;;;13.70;7.70;;;-2.00;82.10;;;;;;5075039;28;20193;-69
2022/03/11 05:00:45;;;;;;;9.95;7.45;;;-2.00;82.30;;;;;;5074837;28;20189;-69
2022/03/11 05:03:11;;;;;;;16.42;8.07;;;-2.00;82.30;;;;;;5074420;28;20242;-68
2022/03/11 05:05:38;;;;;;;16.75;10.25;;;-2.00;82.30;;;;;;5075833;28;20503;-70
2022/03/11 05:08:09;;;;;;;11.23;7.25;;;-2.00;82.50;;;;;;5074392;28;20205;-69
2022/03/11 05:10:36;;;;;;;15.20;8.88;;;-2.00;82.40;;;;;;5074591;28;20308;-67
2022/03/11 05:13:03;;;;;;;12.43;6.60;;;-2.00;83.00;;;;;;5074672;28;20193;-67
2022/03/11 05:15:30;;;;;;;12.93;7.35;;;-1.80;90.20;;;;;;5074544;28;20181;-67
2022/03/11 05:18:04;;;;;;;11.90;7.55;;;-1.70;91.70;;;;;;5074583;28;20197;-70
2022/03/11 05:20:32;;;;;;;11.90;8.18;;;-1.50;93.10;;;;;;5075972;28;20184;-67
2022/03/11 05:22:58;;;;;;;10.98;7.18;;;-1.20;94.50;;;;;;5070281;28;20246;-67
2022/03/11 05:25:25;;;;;;;11.05;8.23;;;-0.90;93.80;;;;;;5054575;28;20227;-67
2022/03/11 05:28:00;;;;;;;10.80;7.47;;;-1.00;85.90;;;;;;5053730;28;20905;-70
2022/03/11 05:30:26;;;;;;;12.52;6.90;;;-1.00;91.60;;;;;;5050503;28;20233;-67
2022/03/11 05:33:00;;;;;;;11.73;7.50;;;-1.00;93.80;;;;;;5038023;28;20201;-68
2022/03/11 05:35:30;;;;;;;10.52;7.32;;;-1.00;93.60;;;;;;5054277;28;20186;-69
2022/03/11 05:38:07;;;;;;;12.52;8.05;;;-1.00;86.40;;;;;;5058302;28;20200;-69
2022/03/11 05:40:43;;;;;;;11.50;8.90;;;-1.10;83.90;;;;;;5074311;28;20204;-68
2022/03/11 05:43:11;;;;;;;11.65;8.13;;;-1.30;83.30;;;;;;5056511;28;20709;-67
2022/03/11 05:45:39;;;;;;;11.88;8.55;;;-1.50;83.40;;;;;;5053862;28;20189;-69
2022/03/11 05:48:05;;;;;;;11.23;8.77;;;-1.70;83.90;;;;;;5053816;28;20200;-67
2022/03/11 05:50:32;;;;;;;12.97;9.03;;;-1.80;84.30;;;;;;5055036;28;20268;-66
2022/03/11 05:52:58;;;;;;;13.48;8.85;;;-2.00;84.60;;;;;;5053443;28;20844;-67
2022/03/11 05:55:29;;;;;;;14.27;8.73;;;-2.10;85.00;;;;;;5055142;28;20199;-68
2022/03/11 05:57:56;;;;;;;11.90;7.63;;;-2.10;85.20;;;;;;5049957;28;20811;-66
2022/03/11 06:00:22;;;;;;;11.10;8.30;;;-2.20;85.30;;;;;;5047507;28;20190;-66
2022/03/11 06:03:04;;;;;;;13.10;8.40;;;-2.20;85.30;;;;;;5053871;28;20229;-68
2022/03/11 06:05:38;;;;;;;14.48;7.68;;;-2.30;85.30;;;;;;5053946;28;20186;-68
2022/03/11 06:08:06;;;;;;;12.05;7.70;;;-2.30;85.10;;;;;;5054015;28;20681;-66
2022/03/11 06:10:39;;;;;;;10.48;7.25;;;-2.30;85.10;;;;;;5053249;28;20410;-68
2022/03/11 06:13:07;;;;;;;10.85;7.13;;;-2.20;84.90;;;;;;5054776;28;20264;-69
2022/03/11 06:15:43;;;;;;;9.80;6.35;;;-2.20;84.50;;;;;;5052175;28;20216;-69
2022/03/11 06:18:12;;;;;;;11.70;7.47;;;-2.20;84.50;;;;;;5051812;28;20255;-67
2022/03/11 06:20:38;;;;;;;10.27;7.07;;;-2.10;84.30;;;;;;5053572;28;20174;-67
2022/03/11 06:23:04;;;;;;;9.27;6.40;;;-2.00;84.30;;;;;;5053477;28;20627;-66
2022/03/11 06:25:32;;;;;;;12.15;7.00;;;-1.90;84.20;;;;;;5052891;28;20981;-68
2022/03/11 06:28:00;;;;;;;34.20;17.30;;;-1.90;83.80;;;;;;5058499;28;20204;-68
2022/03/11 06:30:34;;;;;;;20.70;11.13;;;-1.80;83.30;;;;;;5071244;28;20228;-67
2022/03/11 06:33:01;;;;;;;8.82;6.57;;;-1.70;82.70;;;;;;5072209;28;20207;-67
2022/03/11 06:35:30;;;;;;;12.40;6.40;;;-1.70;82.40;;;;;;5068209;28;20247;-67
2022/03/11 06:37:57;;;;;;;8.43;6.78;;;-1.60;82.40;;;;;;5050655;28;20707;-68
2022/03/11 06:40:24;;;;;;;7.80;4.63;;;-1.50;82.40;;;;;;5050787;28;20194;-65
2022/03/11 06:43:11;;;;;;;14.68;5.80;;;-1.50;81.80;;;;;;5049610;28;20671;-70
2022/03/11 06:45:39;;;;;;;10.50;7.43;;;-1.40;81.50;;;;;;5049397;28;20218;-67
2022/03/11 06:48:05;;;;;;;6.13;4.75;;;-1.30;81.30;;;;;;5050947;28;20197;-67
2022/03/11 06:50:43;;;;;;;14.40;6.83;;;-1.30;81.30;;;;;;5051424;28;20174;-68
2022/03/11 06:53:10;;;;;;;7.55;5.75;;;-1.20;81.30;;;;;;5051970;28;20458;-67
2022/03/11 06:55:39;;;;;;;8.30;5.22;;;-1.20;81.00;;;;;;5049483;28;20565;-69
2022/03/11 06:58:34;;;;;;;12.05;6.20;;;-1.10;80.90;;;;;;5051675;28;20282;-67
2022/03/11 07:04:15;;;;;;;5.63;3.90;;;-0.90;80.40;;;;;;5765103;22;20238;-69
2022/03/11 07:06:42;;;;;;;8.15;4.70;;;-0.80;80.00;;;;;;4998644;28;20177;-69
2022/03/11 07:09:08;;;;;;;9.27;5.95;;;-0.70;80.80;;;;;;5022715;28;20174;-72
2022/03/11 07:11:46;;;;;;;9.20;5.78;;;-0.60;80.10;;;;;;4945010;28;20223;-69
2022/03/11 07:14:45;;;;;;;7.28;4.70;;;-0.50;80.00;;;;;;4956141;28;20193;-69
2022/03/11 07:17:29;;;;;;;7.45;4.80;;;-0.50;79.50;;;;;;4972733;28;20263;-68
2022/03/11 07:23:54;;;;;;;9.23;6.50;;;-0.20;79.00;;;;;;4949381;23;20287;-71
2022/03/11 07:32:26;;;;;;;6.78;4.80;;;0.10;78.30;;;;;;5332648;22;20289;-67
2022/03/11 07:34:54;;;;;;;8.32;5.68;;;0.30;78.60;;;;;;5073259;28;20173;-64
2022/03/11 07:37:21;;;;;;;9.38;5.57;;;0.40;78.30;;;;;;5079136;28;20628;-65
2022/03/11 07:39:47;;;;;;;7.25;4.95;;;0.70;85.30;;;;;;5082771;28;20173;-65
2022/03/11 07:42:13;;;;;;;9.68;7.05;;;0.90;85.90;;;;;;5082246;28;20616;-65
2022/03/11 07:44:42;;;;;;;28.63;12.30;;;1.10;86.80;;;;;;5065841;28;20209;-65
2022/03/11 07:47:08;;;;;;;19.60;7.38;;;1.30;87.10;;;;;;5065843;28;20500;-65
2022/03/11 07:49:34;;;;;;;12.30;6.88;;;1.40;85.80;;;;;;5088612;28;20624;-65
2022/03/11 07:52:14;;;;;;;6.00;4.15;;;1.60;81.80;;;;;;5070493;28;20253;-70
2022/03/11 07:54:43;;;;;;;3.00;2.40;;;1.90;91.00;;;;;;5063739;28;20552;-69
2022/03/11 07:57:10;;;;;;;7.90;6.10;;;2.10;91.10;;;;;;5066230;28;20271;-69
2022/03/11 07:59:37;;;;;;;7.65;5.00;;;2.30;90.90;;;;;;5067781;28;20188;-69
2022/03/11 08:02:08;;;;;;;6.10;4.18;;;2.50;89.40;;;;;;5069286;28;20225;-65
2022/03/11 08:04:40;;;;;;;9.25;5.60;;;2.70;91.80;;;;;;5068274;28;20173;-64
2022/03/11 08:09:43;;;;;;;11.57;7.97;;;3.10;89.50;;;;;;5020839;28;20218;-90
2022/03/11 08:12:09;;;;;;;4.28;3.33;;;3.30;87.90;;;;;;5009548;28;20223;-86
2022/03/11 08:14:34;;;;;;;8.30;5.15;;;3.50;91.30;;;;;;4992667;28;20654;-91
2022/03/11 08:17:01;;;;;;;8.67;5.77;;;3.80;90.90;;;;;;4994527;28;20215;-92
2022/03/11 08:19:27;;;;;;;5.70;4.30;;;4.20;90.40;;;;;;5001256;28;20413;-83
2022/03/11 08:21:52;;;;;;;6.38;4.68;;;4.60;81.60;;;;;;4995235;28;20429;-91
2022/03/11 08:24:21;;;;;;;8.97;4.97;;;5.10;90.00;;;;;;4991866;28;20194;-91
2022/03/11 08:26:48;;;;;;;7.20;4.45;;;5.60;87.90;;;;;;5000363;28;20931;-91
2022/03/11 08:29:16;;;;;;;10.10;6.35;;;6.20;81.90;;;;;;4992685;28;20623;-84
2022/03/11 08:31:43;;;;;;;4.53;2.55;;;7.00;85.90;;;;;;5004211;28;20215;-84
2022/03/11 08:34:09;;;;;;;3.45;2.40;;;7.70;87.80;;;;;;5009676;28;20294;-91
2022/03/11 08:36:35;;;;;;;3.83;3.45;;;8.50;88.20;;;;;;5011024;28;20191;-85
2022/03/11 08:39:27;;;;;;;6.83;3.87;;;9.10;86.50;;;;;;5003193;28;20216;-92
2022/03/11 08:41:54;;;;;;;6.60;4.45;;;9.70;86.00;;;;;;4991784;28;20914;-95
2022/03/11 08:44:21;;;;;;;5.95;4.22;;;10.10;84.80;;;;;;4997024;28;20666;-87
2022/03/11 08:46:47;;;;;;;6.90;4.22;;;10.60;84.30;;;;;;4987167;28;20188;-85
2022/03/11 08:49:14;;;;;;;6.50;4.65;;;10.90;84.60;;;;;;4992165;28;20594;-91
2022/03/11 08:51:42;;;;;;;7.22;5.50;;;11.20;82.50;;;;;;4999383;28;20208;-94
2022/03/11 08:54:08;;;;;;;9.27;5.88;;;11.50;81.00;;;;;;5013566;28;20192;-95
2022/03/11 08:56:34;;;;;;;6.75;4.85;;;11.80;79.20;;;;;;4991497;28;20182;-90
2022/03/11 08:59:00;;;;;;;15.50;4.43;;;12.20;80.80;;;;;;4989785;28;20220;-86
2022/03/11 09:01:26;;;;;;;7.57;4.63;;;12.40;80.40;;;;;;4992456;28;20677;-87
2022/03/11 09:03:52;;;;;;;8.43;3.22;;;12.50;80.30;;;;;;5004092;28;20725;-88
2022/03/11 09:06:18;;;;;;;6.72;4.80;;;12.70;72.70;;;;;;4988927;28;20258;-87
2022/03/11 09:08:44;;;;;;;5.93;5.10;;;12.80;66.60;;;;;;5004936;28;20294;-86
2022/03/11 09:11:10;;;;;;;8.43;5.22;;;12.90;59.30;;;;;;4985321;28;20523;-84
2022/03/11 09:13:37;;;;;;;6.70;5.38;;;13.10;61.80;;;;;;4979107;28;20294;-85
2022/03/11 09:16:04;;;;;;;8.37;4.97;;;13.30;56.50;;;;;;4991468;28;20262;-84
2022/03/11 09:18:30;;;;;;;5.93;4.97;;;13.50;60.50;;;;;;5000082;28;20447;-85
2022/03/11 09:20:56;;;;;;;8.25;5.25;;;13.60;57.20;;;;;;4994849;28;20187;-85
2022/03/11 09:23:22;;;;;;;9.40;6.27;;;13.60;59.80;;;;;;5012124;28;20415;-86
2022/03/11 09:25:50;;;;;;;8.37;5.20;;;13.80;56.50;;;;;;4995460;28;20581;-94
2022/03/11 09:28:16;;;;;;;8.18;5.75;;;13.90;57.80;;;;;;4997414;28;20298;-85
2022/03/11 09:30:41;;;;;;;4.17;2.60;;;14.00;54.20;;;;;;5007718;28;20278;-90
2022/03/11 09:33:07;;;;;;;12.57;5.77;;;14.10;57.70;;;;;;4995962;28;20457;-90
2022/03/11 09:35:33;;;;;;;8.20;5.20;;;14.10;60.20;;;;;;4996383;28;20519;-93
2022/03/11 09:37:59;;;;;;;6.60;4.50;;;14.00;65.40;;;;;;5004632;28;20454;-90
2022/03/11 09:40:26;;;;;;;9.43;6.45;;;13.80;70.50;;;;;;4999199;28;20433;-91
2022/03/11 09:42:53;;;;;;;11.25;4.10;;;13.50;73.60;;;;;;4994498;28;20219;-91
2022/03/11 09:45:21;;;;;;;6.40;4.97;;;13.30;76.10;;;;;;4986179;28;20183;-92
2022/03/11 09:47:47;;;;;;;5.53;4.68;;;13.10;77.30;;;;;;4982574;28;20228;-92
2022/03/11 09:50:13;;;;;;;7.05;5.55;;;12.90;77.80;;;;;;5004681;28;20207;-91
2022/03/11 09:52:39;;;;;;;8.20;4.73;;;12.70;78.80;;;;;;5010452;28;20337;-91
2022/03/11 09:55:06;;;;;;;7.93;5.67;;;12.70;80.80;;;;;;5008503;28;20433;-92
2022/03/11 09:57:32;;;;;;;10.95;6.85;;;12.70;65.60;;;;;;4998250;28;20294;-89
2022/03/11 09:59:58;;;;;;;7.18;4.43;;;13.00;62.20;;;;;;5006976;28;20214;-93
2022/03/11 10:02:24;;;;;;;4.20;3.80;;;13.20;64.50;;;;;;5003918;28;20644;-89
2022/03/11 10:04:57;;;;;;;7.73;3.13;;;13.30;56.40;;;;;;4994789;28;20195;-92
2022/03/11 10:07:29;;;;;;;7.20;4.38;;;13.30;73.10;;;;;;4988451;28;20204;-94
2022/03/11 10:09:56;;;;;;;5.90;3.10;;;13.20;75.50;;;;;;4985813;28;20207;-93
2022/03/11 10:12:28;;;;;;;7.03;4.53;;;13.00;76.70;;;;;;4987356;28;20249;-94
2022/03/11 10:15:03;;;;;;;8.55;5.72;;;12.90;77.40;;;;;;4987276;28;20168;-94
2022/03/11 10:17:42;;;;;;;7.80;4.25;;;12.80;77.30;;;;;;5014722;28;20206;-92
2022/03/11 10:20:10;;;;;;;12.80;7.35;;;12.70;78.10;;;;;;4988066;28;20218;-92
2022/03/11 10:22:37;;;;;;;9.27;5.57;;;12.60;77.80;;;;;;4996744;28;20628;-94
2022/03/11 10:25:16;;;;;;;4.40;3.10;;;12.60;78.30;;;;;;5008421;28;20238;-94
2022/03/11 10:27:57;;;;;;;6.80;3.58;;;12.50;78.80;;;;;;4991390;28;20731;-93
2022/03/11 10:30:25;;;;;;;13.63;5.22;;;12.20;78.10;;;;;;4993373;28;20309;-93
2022/03/11 10:32:55;;;;;;;13.50;4.45;;;11.90;79.60;;;;;;5008305;28;20343;-92
2022/03/11 10:35:31;;;;;;;7.22;4.32;;;11.70;80.80;;;;;;5000046;28;20182;-85
2022/03/11 10:38:07;;;;;;;10.57;5.25;;;11.40;80.60;;;;;;4995581;28;20212;-94
2022/03/11 10:40:35;;;;;;;7.10;4.20;;;11.10;71.00;;;;;;4987765;28;20662;-93
2022/03/11 10:43:17;;;;;;;4.47;2.58;;;10.80;61.30;;;;;;4983757;28;20227;-92
2022/03/11 10:45:48;;;;;;;6.53;4.07;;;10.50;59.40;;;;;;5005528;28;20258;-86
2022/03/11 10:48:15;;;;;;;6.05;4.05;;;10.10;56.50;;;;;;4992148;28;20235;-85
2022/03/11 10:50:41;;;;;;;7.05;4.00;;;9.70;55.70;;;;;;4996875;28;20187;-91
2022/03/11 10:53:08;;;;;;;6.05;5.03;;;9.40;56.90;;;;;;4994869;28;20279;-90
2022/03/11 10:55:34;;;;;;;5.57;4.32;;;9.10;57.40;;;;;;4990052;28;20185;-85
2022/03/11 10:58:01;;;;;;;8.47;4.57;;;8.90;57.70;;;;;;5011869;28;20280;-85
2022/03/11 11:00:29;;;;;;;8.02;4.35;;;8.70;58.00;;;;;;4997119;28;20262;-85
2022/03/11 11:03:01;;;;;;;6.68;4.55;;;8.70;57.20;;;;;;5009132;28;20233;-85
2022/03/11 11:05:28;;;;;;;6.88;4.78;;;8.50;57.90;;;;;;4999663;28;20208;-85
2022/03/11 11:07:54;;;;;;;9.70;5.60;;;8.40;56.90;;;;;;5012430;28;20298;-89
2022/03/11 11:10:22;;;;;;;6.93;5.45;;;8.30;57.80;;;;;;5012030;28;20219;-85
2022/03/11 11:12:50;;;;;;;10.32;5.32;;;8.20;57.60;;;;;;4999609;28;20281;-90
2022/03/11 11:15:16;;;;;;;4.88;4.35;;;8.10;58.20;;;;;;5005209;28;20232;-89
2022/03/11 11:17:43;;;;;;;6.80;4.93;;;8.10;56.40;;;;;;5005686;28;20238;-86
2022/03/11 11:20:22;;;;;;;6.95;5.00;;;8.10;56.80;;;;;;5008630;28;20628;-86
2022/03/11 11:22:51;;;;;;;6.47;4.60;;;8.10;57.80;;;;;;5002688;28;20207;-90
2022/03/11 11:25:22;;;;;;;8.45;5.15;;;8.10;57.40;;;;;;5010290;28;20249;-85
2022/03/11 11:27:49;;;;;;;8.75;6.22;;;8.00;57.90;;;;;;5011264;28;20632;-85
2022/03/11 11:30:23;;;;;;;9.75;5.80;;;8.00;57.90;;;;;;4996676;28;20176;-85
2022/03/11 11:32:52;;;;;;;7.00;5.40;;;8.10;58.00;;;;;;4995200;28;20834;-85
2022/03/11 11:35:41;;;;;;;9.18;4.35;;;8.10;57.70;;;;;;4991236;28;20274;-89
2022/03/11 11:38:27;;;;;;;8.52;6.05;;;8.10;57.40;;;;;;4998084;28;20227;-90
2022/03/11 11:40:54;;;;;;;8.55;4.90;;;8.20;57.00;;;;;;4995233;28;20266;-90
2022/03/11 11:43:29;;;;;;;7.40;4.78;;;8.10;56.60;;;;;;4999658;28;20219;-85
2022/03/11 11:46:05;;;;;;;8.57;5.60;;;8.20;57.50;;;;;;4994481;28;20179;-85
2022/03/11 11:48:45;;;;;;;8.13;5.45;;;8.20;57.70;;;;;;4999339;28;20699;-85
2022/03/11 11:51:23;;;;;;;8.00;4.97;;;8.20;57.70;;;;;;4993859;28;20216;-85
2022/03/11 11:53:50;;;;;;;10.55;6.80;;;8.10;57.90;;;;;;4994755;28;20207;-86
2022/03/11 11:56:33;;;;;;;9.18;5.70;;;8.10;58.20;;;;;;5000276;28;20251;-90
2022/03/11 11:59:04;;;;;;;12.00;7.40;;;8.10;58.30;;;;;;4988870;28;20207;-89
2022/03/11 12:01:38;;;;;;;9.68;6.18;;;8.10;57.80;;;;;;4990160;28;20188;-89
2022/03/11 12:04:29;;;;;;;7.40;5.85;;;8.10;57.60;;;;;;5005761;28;20793;-90
2022/03/11 12:06:59;;;;;;;7.53;4.90;;;8.10;58.30;;;;;;4990970;28;20190;-90
2022/03/11 12:09:40;;;;;;;9.38;6.05;;;8.10;56.80;;;;;;5012201;28;20235;-89
2022/03/11 12:12:07;;;;;;;7.05;5.63;;;8.10;57.20;;;;;;5005499;28;20220;-90
2022/03/11 12:14:52;;;;;;;6.22;5.30;;;8.20;57.60;;;;;;5001620;28;20184;-90
2022/03/11 12:18:03;;;;;;;12.57;5.97;;;8.20;57.10;;;;;;5008138;28;20207;-86
2022/03/11 12:20:39;;;;;;;6.93;5.03;;;8.20;57.50;;;;;;4990824;28;20188;-91
2022/03/11 12:23:17;;;;;;;23.40;11.05;;;8.20;57.30;;;;;;5002811;28;20207;-87
2022/03/11 12:25:57;;;;;;;7.68;5.90;;;8.20;57.60;;;;;;4989298;28;20545;-91
2022/03/11 12:28:35;;;;;;;6.15;4.88;;;8.30;57.20;;;;;;5004239;28;20246;-88
2022/03/11 12:31:19;;;;;;;6.38;5.63;;;8.40;57.00;;;;;;5015498;28;20535;-86
2022/03/11 12:33:49;;;;;;;5.88;4.38;;;8.40;56.30;;;;;;4989462;28;20206;-91
2022/03/11 12:36:16;;;;;;;5.95;4.65;;;8.40;56.30;;;;;;5000178;28;20196;-90
2022/03/11 12:38:42;;;;;;;5.90;4.32;;;8.40;56.10;;;;;;5003611;28;20229;-85
2022/03/11 12:41:11;;;;;;;7.50;5.15;;;8.50;55.10;;;;;;4999981;28;20176;-90
2022/03/11 12:43:39;;;;;;;6.10;5.13;;;8.50;55.10;;;;;;4999201;28;20391;-89
2022/03/11 12:46:06;;;;;;;6.63;5.55;;;8.50;56.40;;;;;;5004131;28;20276;-89
2022/03/11 12:48:36;;;;;;;7.30;5.75;;;8.50;56.30;;;;;;4999159;28;20215;-89
2022/03/11 12:51:19;;;;;;;7.72;5.30;;;8.50;55.80;;;;;;4998060;28;20211;-90
2022/03/11 12:53:46;;;;;;;6.30;4.72;;;8.50;55.50;;;;;;5000236;28;20211;-84
2022/03/11 12:56:12;;;;;;;6.00;4.10;;;8.50;55.30;;;;;;5005817;28;20183;-85
2022/03/11 12:58:38;;;;;;;5.53;3.53;;;8.40;54.90;;;;;;4995617;28;20222;-91
2022/03/11 13:01:10;;;;;;;8.00;4.20;;;8.40;55.90;;;;;;4999286;28;20421;-86
2022/03/11 13:03:41;;;;;;;7.38;5.05;;;8.40;55.00;;;;;;5002767;28;20308;-90
2022/03/11 13:06:10;;;;;;;6.20;4.53;;;8.40;55.10;;;;;;5008171;28;20176;-91
2022/03/11 13:08:38;;;;;;;8.23;5.70;;;8.30;54.70;;;;;;4999575;28;20235;-91
2022/03/11 13:11:06;;;;;;;6.28;4.10;;;8.30;55.90;;;;;;5006042;28;20215;-90
2022/03/11 13:13:33;;;;;;;5.35;4.40;;;8.40;55.20;;;;;;4998592;28;20224;-86
2022/03/11 13:16:00;;;;;;;4.70;3.67;;;8.40;54.80;;;;;;4999845;28;20296;-86
2022/03/11 13:18:27;;;;;;;8.45;5.50;;;8.40;54.90;;;;;;5015579;28;20728;-91